This is the latest recevied weather packets stored in our database for station/object KO6HRZ. If no packets are shown the sender has not sent any weather packets the latest 10 day(s).
| Time | Temp. | Humidity | Pressure | Rain* | Wind** | Luminosity | Snow |
|---|---|---|---|---|---|---|---|
| 1777671072 | 30° C | 50% | 1013 hPa | 0 mm | - | 732 W/m² | - |
| 1777670471 | 29.44° C | 49% | 1013 hPa | 0 mm | - | 761 W/m² | - |
| 1777669872 | 28.89° C | 47% | 1013.1 hPa | 0 mm | - | 761 W/m² | - |
| 1777669271 | 28.33° C | 52% | 1013 hPa | 0 mm | - | 833 W/m² | - |
| 1777668671 | 27.22° C | 51% | 1013.1 hPa | 0 mm | - | 747 W/m² | - |
| 1777668069 | 27.22° C | 50% | 1013.4 hPa | 0 mm | - | 793 W/m² | - |
| 1777667463 | 27.78° C | 53% | 1013.5 hPa | 0 mm | - | 714 W/m² | - |
| 1777666863 | 27.22° C | 53% | 1013.4 hPa | 0 mm | - | 758 W/m² | - |
| 1777666262 | 27.22° C | 53% | 1013.6 hPa | 0 mm | - | 791 W/m² | - |
| 1777665657 | 27.22° C | 53% | 1013.8 hPa | 0 mm | - | 798 W/m² | - |
| 1777665055 | 26.67° C | 55% | 1013.8 hPa | 0 mm | - | 814 W/m² | - |
| 1777664453 | 26.67° C | 54% | 1013.9 hPa | 0 mm | - | 807 W/m² | - |
| 1777663849 | 26.11° C | 54% | 1014.2 hPa | 0 mm | - | 822 W/m² | - |
| 1777663249 | 26.11° C | 55% | 1014.1 hPa | 0 mm | - | 815 W/m² | - |
| 1777662649 | 26.67° C | 54% | 1014.4 hPa | 0 mm | - | 793 W/m² | - |
| 1777662046 | 25.56° C | 56% | 1014.5 hPa | 0 mm | - | 809 W/m² | - |
| 1777661444 | 25.56° C | 58% | 1014.4 hPa | 0 mm | - | 738 W/m² | - |
| 1777660840 | 25° C | 55% | 1014.7 hPa | 0 mm | - | 762 W/m² | - |
| 1777660239 | 25° C | 57% | 1014.5 hPa | 0 mm | - | 774 W/m² | - |
| 1777659639 | 25° C | 56% | 1014.7 hPa | 0 mm | - | 744 W/m² | - |
| 1777659038 | 23.89° C | 58% | 1014.8 hPa | 0 mm | - | 723 W/m² | - |
| 1777658438 | 23.89° C | 59% | 1014.7 hPa | 0 mm | - | 682 W/m² | - |
| 1777657838 | 23.89° C | 59% | 1014.8 hPa | 0 mm | - | 651 W/m² | - |
| 1777657233 | 22.78° C | 61% | 1014.7 hPa | 0 mm | - | 618 W/m² | - |
| 1777656632 | 23.33° C | 60% | 1014.6 hPa | 0 mm | - | 585 W/m² | - |
* Rain latest hour (hover to see other rain measurements)
** Current wind speed in m/s (hover to see current wind gust speed)